Latest Weather Observations for Wadeye (Port Keats)

IDD60801

Issued at 10:31 am CST Tuesday 20 October 2020 (issued every 10 minutes, with the page automatically refreshed every 10 minutes)

About weather observations | Map of weather stations | Latest weather observations for NT | Other Formats
Station Details ID: 014948 Name: PORT KEATS AIRPORT Lat: -14.25 Lon: 129.53 Height: 28.0 m
Data from the previous 72 hours. | See also: Recent months at Wadeye (Port Keats)
Date/Time
CST
Temp
°C
App
Temp
°C
Dew
Point
°C
Rel
Hum
%
Delta-T
°C
Wind Press
QNH
hPa
Press
MSL
hPa
Rain since
9am
mm
Dir  Spd
km/h
Gust
km/h
Spd
kts
Gust
kts
20/10:30am 30.7 33.0 22.0 59 5.9 NW 13 22 7 12 1011.7 1011.5 0.0
20/10:00am 30.7 32.5 21.2 57 6.4 WNW 13 17 7 9 1011.7 1011.5 0.0
20/09:30am 30.9 32.3 21.1 56 6.6 WNW 15 22 8 12 1011.8 1011.6 0.0
20/09:00am 30.8 33.8 22.7 62 5.5 WNW 11 20 6 11 1011.6 1011.4 0.2
20/08:30am 29.5 32.1 22.0 64 5.1 NW 11 17 6 9 1011.7 1011.5 0.2
20/08:00am 29.4 32.6 22.4 66 4.8 NW 9 13 5 7 1011.4 1011.2 0.2
20/07:30am 28.8 32.3 22.8 70 4.1 WNW 9 19 5 10 1010.6 1010.4 0.2
20/07:00am 28.1 32.2 23.2 74 3.4 WNW 7 11 4 6 1010.4 1010.2 0.2
20/06:30am 27.9 32.1 23.5 77 3.0 WNW 7 13 4 7 1010.1 1009.9 0.2
20/06:00am 28.0 32.4 23.4 76 3.2 WNW 6 7 3 4 1009.7 1009.5 0.2
20/05:30am 28.2 32.6 23.8 77 3.0 W 7 11 4 6 1009.7 1009.5 0.2
20/05:00am 28.4 32.8 23.8 76 3.2 WNW 7 13 4 7 1009.4 1009.2 0.2
20/04:30am 28.4 32.8 23.8 76 3.2 WNW 7 11 4 6 1009.3 1009.1 0.2
20/04:00am 28.3 32.3 23.7 76 3.2 WNW 9 17 5 9 1008.9 1008.7 0.2
20/03:30am 28.1 32.2 23.9 78 2.9 WNW 9 13 5 7 1008.5 1008.3 0.2
20/03:00am 26.9 31.5 23.8 83 2.1 WNW 6 9 3 5 1008.4 1008.2 0.2
20/02:30am 25.9 30.1 23.2 85 1.8 WSW 6 7 3 4 1008.6 1008.4 0.2
20/02:00am 26.0 31.1 23.3 85 1.8 SSW 2 6 1 3 1009.1 1008.9 0.2
20/01:30am 26.3 30.9 23.2 83 2.1 SSE 4 7 2 4 1009.2 1009.0 0.2
20/01:00am 26.5 31.8 23.0 81 2.4 CALM 0 0 0 0 1009.2 1009.0 0.2
20/12:30am 26.6 31.9 23.1 81 2.4 CALM 0 0 0 0 1009.4 1009.2 0.2
20/12:00am 26.8 32.0 22.8 79 2.7 CALM 0 0 0 0 1009.6 1009.4 0.2
 
Date/Time
CST
Temp
°C
App
Temp
°C
Dew
Point
°C
Rel
Hum
%
Delta-T
°C
Wind Press
QNH
hPa
Press
MSL
hPa
Rain since
9am
mm
Dir  Spd
km/h
Gust
km/h
Spd
kts
Gust
kts
19/11:30pm 26.7 30.9 22.5 78 2.8 WSW 4 6 2 3 1010.0 1009.8 0.2
19/11:00pm 26.7 30.7 22.8 79 2.6 SSW 6 7 3 4 1010.1 1009.9 0.2
19/10:30pm 27.3 31.6 22.7 76 3.1 WNW 4 7 2 4 1009.9 1009.7 0.2
19/10:00pm 27.8 31.7 22.5 73 3.6 NW 6 7 3 4 1009.8 1009.6 0.2
19/09:30pm 28.3 32.0 22.3 70 4.1 WNW 6 7 3 4 1009.5 1009.3 0.2
19/09:00pm 29.0 32.8 22.7 69 4.3 N 7 11 4 6 1009.5 1009.3 0.2
19/08:30pm 29.0 31.7 22.2 66 4.6 NNE 11 15 6 8 1009.6 1009.4 0.2
19/08:00pm 29.0 31.4 22.2 66 4.6 NNE 13 17 7 9 1009.1 1008.9 0.2
19/07:30pm 29.4 32.0 22.6 67 4.6 N 13 15 7 8 1008.4 1008.2 0.2
19/07:00pm 30.1 31.9 21.2 59 6.0 NW 13 19 7 10 1007.7 1007.5 0.2
19/06:30pm 30.5 32.8 20.7 55 6.5 SSE 9 19 5 10 1007.6 1007.4 0.2
19/06:00pm 30.8 33.5 20.7 55 6.7 NE 7 11 4 6 1008.1 1007.9 0.2
19/05:30pm 31.6 34.6 21.2 54 7.0 WNW 7 11 4 6 1007.7 1007.5 0.2
19/05:00pm 31.2 33.5 21.4 56 6.6 NW 11 17 6 9 1007.4 1007.2 0.2
19/04:30pm 30.5 32.2 22.4 62 5.5 NNW 17 22 9 12 1007.4 1007.2 0.2
19/04:00pm 31.3 33.1 21.8 57 6.4 NW 15 20 8 11 1007.3 1007.1 0.2
19/03:30pm 32.0 34.0 21.5 53 7.1 NW 13 20 7 11 1007.1 1006.9 0.2
19/03:00pm 32.0 34.1 22.4 57 6.6 NNW 15 28 8 15 1007.7 1007.5 0.2
19/02:30pm 31.3 33.0 22.3 58 6.1 NNW 17 26 9 14 1008.4 1008.2 0.2
19/02:00pm 31.0 33.0 22.9 62 5.6 NNW 17 24 9 13 1008.8 1008.6 0.2
19/01:30pm 29.6 31.4 23.3 69 4.3 N 19 24 10 13 1009.4 1009.2 0.0
19/01:00pm 29.4 31.1 23.1 69 4.3 N 19 22 10 12 1010.0 1009.8 0.0
19/12:30pm 28.7 32.3 24.3 77 3.1 N 13 17 7 9 1010.6 1010.4 0.0
19/12:00pm 27.3 29.4 22.5 75 3.2 NE 15 20 8 11 1011.1 1010.9 0.0
19/11:30am 29.4 30.4 22.1 65 4.9 NNW 20 28 11 15 1011.1 1010.9 0.0
19/11:00am 31.0 33.0 21.5 57 6.4 NW 13 20 7 11 1011.2 1011.0 0.0
19/10:30am 31.1 34.2 22.1 58 6.1 NW 9 15 5 8 1011.4 1011.2 0.0
19/10:00am 30.3 33.9 23.0 65 5.0 WSW 9 15 5 8 1011.4 1011.2 0.0
19/09:30am 29.6 31.7 23.1 68 4.5 NNW 17 20 9 11 1011.7 1011.5 0.0
19/09:00am 29.0 32.8 23.4 72 3.9 NW 9 15 5 8 1011.9 1011.7 0.6
19/08:30am 29.0 32.2 23.0 70 4.1 WNW 11 17 6 9 1011.8 1011.6 0.6
19/08:00am 29.6 33.7 24.0 72 3.9 WNW 9 15 5 8 1011.4 1011.2 0.6
19/07:30am 27.8 33.8 24.2 81 2.5 CALM 0 0 0 0 1010.9 1010.7 0.6
19/07:00am 26.1 30.4 23.6 86 1.7 NE 7 9 4 5 1010.6 1010.4 0.6
19/06:30am 26.5 32.2 23.8 85 1.9 CALM 0 0 0 0 1010.0 1009.8 0.6
19/06:00am 26.3 32.0 23.8 86 1.7 CALM 0 0 0 0 1009.6 1009.4 0.6
19/05:30am 26.2 31.9 23.7 86 1.7 CALM 0 0 0 0 1009.2 1009.0 0.6
19/05:00am 26.4 32.1 23.7 85 1.9 CALM 0 0 0 0 1009.0 1008.8 0.6
19/04:30am 26.9 32.3 23.8 83 2.1 N 2 6 1 3 1009.0 1008.8 0.6
19/04:00am 27.1 32.0 23.6 81 2.4 W 4 7 2 4 1008.8 1008.6 0.6
19/03:30am 27.1 32.5 23.8 82 2.3 W 2 7 1 4 1008.8 1008.6 0.6
19/03:00am 26.8 31.8 23.9 84 2.0 WSW 4 7 2 4 1008.9 1008.7 0.6
19/02:30am 26.7 32.4 23.8 84 2.0 CALM 0 0 0 0 1009.2 1009.0 0.6
19/02:00am 27.2 33.0 23.9 82 2.3 CALM 0 6 0 3 1009.7 1009.5 0.6
19/01:30am 27.5 32.1 24.1 82 2.4 S 7 9 4 5 1010.1 1009.9 0.6
19/01:00am 27.2 31.9 23.9 82 2.3 W 6 11 3 6 1009.9 1009.7 0.6
19/12:30am 27.1 31.7 23.8 82 2.3 WNW 6 9 3 5 1010.0 1009.8 0.6
19/12:00am 26.9 31.8 23.6 82 2.3 NW 4 7 2 4 1010.2 1010.0 0.6
 
Date/Time
CST
Temp
°C
App
Temp
°C
Dew
Point
°C
Rel
Hum
%
Delta-T
°C
Wind Press
QNH
hPa
Press
MSL
hPa
Rain since
9am
mm
Dir  Spd
km/h
Gust
km/h
Spd
kts
Gust
kts
18/11:30pm 26.4 30.7 23.3 83 2.1 WNW 6 7 3 4 1010.1 1009.9 0.6
18/11:00pm 26.4 31.7 23.1 82 2.2 CALM 0 0 0 0 1010.2 1010.0 0.6
18/10:30pm 26.4 31.6 22.9 81 2.4 CALM 0 0 0 0 1010.0 1009.8 0.6
18/10:00pm 27.0 32.1 22.6 77 3.0 CALM 0 0 0 0 1009.8 1009.6 0.6
18/09:30pm 27.1 32.1 22.5 76 3.1 CALM 0 0 0 0 1009.5 1009.3 0.6
18/09:00pm 26.8 31.6 22.2 76 3.1 CALM 0 0 0 0 1008.9 1008.7 0.6
18/08:30pm 26.2 29.6 21.6 76 3.1 SW 6 7 3 4 1008.7 1008.5 0.6
18/08:00pm 27.2 31.0 21.7 72 3.7 ENE 4 7 2 4 1009.0 1008.8 0.6
18/07:30pm 26.9 30.2 21.4 72 3.7 W 6 7 3 4 1008.9 1008.7 0.6
18/07:00pm 27.2 30.2 21.2 69 4.0 NNE 7 11 4 6 1009.1 1008.9 0.6
18/06:30pm 27.1 28.5 20.4 66 4.4 NNE 13 17 7 9 1009.0 1008.8 0.6
18/06:00pm 29.5 34.0 22.2 65 5.0 SW 2 7 1 4 1009.4 1009.2 0.6
18/05:30pm 29.5 32.8 22.5 66 4.8 WNW 9 15 5 8 1008.7 1008.5 0.6
18/05:00pm 30.1 32.6 22.5 63 5.2 WNW 13 19 7 10 1008.2 1008.0 0.6
18/04:30pm 30.3 32.9 22.7 64 5.2 W 13 20 7 11 1007.9 1007.7 0.6
18/04:00pm 30.4 33.0 22.6 63 5.3 NW 13 22 7 12 1008.2 1008.0 0.6
18/03:30pm 32.0 34.2 23.3 60 6.0 NW 17 26 9 14 1007.9 1007.7 0.6
18/03:00pm 31.8 33.7 22.8 59 6.2 NW 17 24 9 13 1008.4 1008.2 0.6
18/02:30pm 31.0 32.7 22.3 60 5.9 NNW 17 26 9 14 1008.9 1008.7 0.6
18/02:00pm 31.7 34.6 23.8 63 5.5 NW 15 20 8 11 1009.2 1009.0 0.6
18/01:30pm 32.2 35.5 21.4 53 7.3 W 6 15 3 8 1009.5 1009.3 0.6
18/01:00pm 31.1 35.6 23.0 62 5.6 W 4 9 2 5 1010.0 1009.8 0.6
18/12:30pm 28.8 31.7 21.8 66 4.7 WNW 9 13 5 7 1010.7 1010.5 0.6
18/12:00pm 29.2 31.9 22.2 66 4.7 NNW 11 15 6 8 1011.4 1011.2 0.4
18/11:30am 28.5 32.3 23.4 74 3.5 WNW 9 17 5 9 1012.0 1011.8 0.4
18/11:00am 27.4 29.7 21.4 70 4.0 SW 11 19 6 10 1012.1 1011.9 0.2
18/10:30am 28.5 30.3 21.8 67 4.5 W 15 24 8 13 1011.7 1011.5 0.2
18/10:00am 29.6 32.7 22.8 67 4.6 W 11 17 6 9 1011.9 1011.7 0.2
18/09:30am 29.4 32.9 22.9 68 4.4 NE 9 13 5 7 1012.1 1011.9 0.0
18/09:00am 29.4 32.9 22.9 68 4.4 NE 9 15 5 8 1012.0 1011.8 2.8
18/08:30am 29.0 33.2 23.4 72 3.9 E 7 11 4 6 1011.9 1011.7 2.8
18/08:00am 27.7 32.8 23.3 77 3.0 E 2 9 1 5 1011.4 1011.2 2.8
18/07:30am 25.4 29.3 22.9 86 1.7 ESE 7 11 4 6 1011.1 1010.9 2.8
18/07:00am 25.0 29.2 23.1 89 1.3 E 6 7 3 4 1010.6 1010.4 2.8
18/06:30am 24.9 30.2 23.0 89 1.3 CALM 0 0 0 0 1009.9 1009.7 2.8
18/06:00am 24.9 29.4 23.0 89 1.3 ESE 4 7 2 4 1009.8 1009.6 2.8
18/05:30am 25.0 29.6 23.1 89 1.3 E 4 6 2 3 1009.4 1009.2 2.8
18/05:00am 25.3 30.0 23.4 89 1.3 E 4 6 2 3 1009.1 1008.9 2.8
18/04:30am 25.4 30.8 23.3 88 1.4 CALM 0 0 0 0 1009.0 1008.8 2.8
18/04:00am 25.5 31.1 23.6 89 1.3 CALM 0 0 0 0 1008.7 1008.5 2.8
18/03:30am 25.6 31.3 23.7 89 1.3 CALM 0 0 0 0 1008.6 1008.4 2.8
18/03:00am 25.5 31.1 23.6 89 1.3 CALM 0 0 0 0 1008.6 1008.4 2.8
18/02:30am 25.6 31.2 23.5 88 1.4 CALM 0 0 0 0 1008.5 1008.3 2.8
18/02:00am 25.4 30.7 23.1 87 1.6 CALM 0 4 0 2 1008.5 1008.3 2.8
18/01:30am 25.8 31.2 23.3 86 1.7 CALM 0 0 0 0 1008.8 1008.6 2.8
18/01:00am 26.4 31.8 23.3 83 2.1 CALM 0 0 0 0 1009.1 1008.9 2.8
18/12:30am 26.3 31.2 23.0 82 2.2 W 2 6 1 3 1009.3 1009.1 2.8
18/12:00am 27.1 31.4 23.3 80 2.6 W 6 7 3 4 1009.4 1009.2 2.8
 
Date/Time
CST
Temp
°C
App
Temp
°C
Dew
Point
°C
Rel
Hum
%
Delta-T
°C
Wind Press
QNH
hPa
Press
MSL
hPa
Rain since
9am
mm
Dir  Spd
km/h
Gust
km/h
Spd
kts
Gust
kts
17/11:30pm 28.1 31.8 23.2 74 3.4 NNW 9 11 5 6 1009.6 1009.4 2.8
17/11:00pm 28.0 32.2 23.4 76 3.2 NW 7 13 4 7 1009.7 1009.5 2.8
17/10:30pm 28.2 32.3 24.0 78 2.9 N 9 11 5 6 1009.8 1009.6 2.8
17/10:00pm 27.8 31.5 23.2 76 3.1 NW 9 13 5 7 1009.6 1009.4 2.8
17/09:30pm 28.4 32.4 23.8 76 3.2 N 9 13 5 7 1009.6 1009.4 2.8
17/09:00pm 28.6 32.0 23.3 73 3.6 N 11 17 6 9 1009.4 1009.2 2.8
17/08:30pm 28.7 31.8 22.9 71 4.0 N 11 17 6 9 1009.2 1009.0 2.8
17/08:00pm 28.7 32.2 23.6 74 3.5 N 11 13 6 7 1008.7 1008.5 2.8
17/07:30pm 28.7 32.5 23.4 73 3.6 NNW 9 15 5 8 1008.4 1008.2 2.8
17/07:00pm 28.8 32.5 23.2 71 3.8 NW 9 13 5 7 1008.2 1008.0 2.8
17/06:30pm 29.0 32.3 22.5 68 4.4 NW 9 13 5 7 1008.0 1007.8 2.8
17/06:00pm 29.2 32.1 23.2 70 4.1 NW 13 17 7 9 1007.9 1007.7 2.8
17/05:30pm 28.3 34.0 23.7 76 3.2 CALM 0 6 0 3 1007.6 1007.4 2.8
17/05:00pm 28.0 32.3 23.6 77 3.0 SSW 7 11 4 6 1007.7 1007.5 2.8
17/04:30pm 28.1 32.9 24.1 79 2.8 SW 6 15 3 8 1007.5 1007.3 2.8
17/04:00pm 27.6 32.7 24.0 81 2.5 N 4 7 2 4 1007.6 1007.4 2.8
17/03:30pm 28.2 33.9 24.4 80 2.6 NNW 2 11 1 6 1008.1 1007.9 2.8
17/03:00pm 26.7 30.5 23.4 82 2.3 WSW 9 13 5 7 1008.4 1008.2 2.4
17/02:30pm 26.5 28.9 23.0 81 2.4 SSW 15 20 8 11 1009.0 1008.8 2.2
17/02:00pm 30.5 32.8 22.1 61 5.7 NW 13 17 7 9 1009.0 1008.8 0.2
17/01:30pm 30.9 31.7 21.4 57 6.4 NW 19 30 10 16 1008.8 1008.6 0.2
17/01:00pm 32.0 32.7 21.5 53 7.1 NNW 20 35 11 19 1009.1 1008.9 0.2
17/12:30pm 31.1 32.4 21.6 57 6.4 NW 17 26 9 14 1009.7 1009.5 0.2
17/12:00pm 30.0 32.1 21.7 61 5.6 NW 13 22 7 12 1010.2 1010.0 0.2
17/11:30am 31.0 32.4 21.8 58 6.2 NW 17 26 9 14 1010.4 1010.2 0.2
17/11:00am 29.7 32.7 23.4 69 4.3 NW 13 17 7 9 1010.8 1010.6 0.2

Other formats

Comma delimited format used in spreadsheet applications
http://www.bom.gov.au/fwo/IDD60801/IDD60801.95111.axf

JavaScript Object Notation format (JSON) in row-major order
http://www.bom.gov.au/fwo/IDD60801/IDD60801.95111.json

Data quality

Most of these data are generated automatically and are frequently updated. Quality checks on data are not normally performed. It is possible for incorrect values to appear. Refer to information at About Latest Weather Observations and please check the disclaimer before using these data.